Wizard — WDC6082 — position and weather

sailwx.info

Track history (hours):
 
Tides and Currents Weather Stations Pressure Air Temp Water Temp Dewpoint Dewpoint Depression Visibility Wind Speed Wind Dir Waves Ship Positions

Wizard

More information available from US FCC via Universal Licensing System and Coast Guard Vessel Documentation Center.

Last reported at 2014-Apr-11 22:33 UTC. Time now 2014-Aug-30 18:31 UTC.
Position N 47°40' W 122°23'.
Warning: this ship's position is months out of date.

Length 52 m; draft 0.4 m.

MMSI: 5491.

Date/timePositionNaut miles runAvg speedWind from/ knotsBaromVisibWave heightAir tempDewpointWater temp
2014-Apr-11 22:33N 47°40' W 122°23'0 0.0
2014-Apr-11 22:18N 47°40' W 122°23'0 0.0
2014-Apr-11 21:34N 47°40' W 122°23'0 0.0
2014-Apr-11 21:33N 47°40' W 122°23'0 0.3
2014-Apr-11 20:34N 47°40' W 122°24'0 0.0
2014-Apr-11 20:33N 47°40' W 122°24'4 4.4
2014-Apr-11 19:34N 47°44' W 122°27'024.3
2014-Apr-11 19:33N 47°44' W 122°27'10 9.8
2014-Apr-11 18:33N 47°53' W 122°30'0 5.9
2014-Apr-11 18:33N 47°53' W 122°30'9 9.1
2014-Apr-11 17:33N 48°01' W 122°38'9 8.6
2014-Apr-11 16:31N 48°09' W 122°44'9 8.9
2014-Apr-11 15:32N 48°11' W 122°56'9 8.6
2014-Apr-11 14:33N 48°12' W 123°09'9 8.8
2014-Apr-11 13:32N 48°12' W 123°22'8 8.6
2014-Apr-11 12:33N 48°13' W 123°35'9 9.0
2014-Apr-11 11:33N 48°13' W 123°48'9 9.2
2014-Apr-11 10:32N 48°15' W 124°02'65 9.3
2014-Apr-11 03:32N 48°39' W 125°33'9 9.3
2014-Apr-11 02:33N 48°43' W 125°45'9 9.1
2014-Apr-11 01:33N 48°47' W 125°58'10 9.1
2014-Apr-11 00:26N 48°51' W 126°12'  
Track history (hours):
 
Tides and Currents Weather Stations Pressure Air Temp Water Temp Dewpoint Dewpoint Depression Visibility Wind Speed Wind Dir Waves Ship Positions

Wizard

More information available from US FCC via Universal Licensing System and Coast Guard Vessel Documentation Center.

Last reported at 2014-Apr-11 22:33 UTC. Time now 2014-Aug-30 18:31 UTC.
Position N 47°40' W 122°23'.
Warning: this ship's position is months out of date.

Length 52 m; draft 0.4 m.

MMSI: 5491.

Date/timePositionNaut miles runAvg speedWind from/ knotsBaromVisibWave heightAir tempDewpointWater temp
2014-Apr-11 22:33N 47°40' W 122°23'0 0.0
2014-Apr-11 22:18N 47°40' W 122°23'0 0.0
2014-Apr-11 21:34N 47°40' W 122°23'0 0.0
2014-Apr-11 21:33N 47°40' W 122°23'0 0.3
2014-Apr-11 20:34N 47°40' W 122°24'0 0.0
2014-Apr-11 20:33N 47°40' W 122°24'4 4.4
2014-Apr-11 19:34N 47°44' W 122°27'024.3
2014-Apr-11 19:33N 47°44' W 122°27'10 9.8
2014-Apr-11 18:33N 47°53' W 122°30'0 5.9
2014-Apr-11 18:33N 47°53' W 122°30'9 9.1
2014-Apr-11 17:33N 48°01' W 122°38'9 8.6
2014-Apr-11 16:31N 48°09' W 122°44'9 8.9
2014-Apr-11 15:32N 48°11' W 122°56'9 8.6
2014-Apr-11 14:33N 48°12' W 123°09'9 8.8
2014-Apr-11 13:32N 48°12' W 123°22'8 8.6
2014-Apr-11 12:33N 48°13' W 123°35'9 9.0
2014-Apr-11 11:33N 48°13' W 123°48'9 9.2
2014-Apr-11 10:32N 48°15' W 124°02'65 9.3
2014-Apr-11 03:32N 48°39' W 125°33'9 9.3
2014-Apr-11 02:33N 48°43' W 125°45'9 9.1
2014-Apr-11 01:33N 48°47' W 125°58'10 9.1
2014-Apr-11 00:26N 48°51' W 126°12'  

Dump ship's entire track history